createdAt,value
2022-12-31T00:01:58.971Z,2.25
2022-12-31T00:04:26.903Z,2.30
2022-12-31T00:06:54.671Z,2.30
2022-12-31T00:09:24.324Z,2.58
2022-12-31T00:11:52.106Z,3.10
2022-12-31T00:14:19.966Z,2.75
2022-12-31T00:16:47.780Z,3.20
2022-12-31T00:19:15.619Z,2.90
2022-12-31T00:21:44.961Z,3.22
2022-12-31T00:24:13.139Z,3.45
2022-12-31T00:26:42.937Z,3.78
2022-12-31T00:29:11.547Z,3.20
2022-12-31T00:31:40.172Z,3.60
2022-12-31T00:34:08.434Z,3.33
2022-12-31T00:36:38.391Z,3.20
2022-12-31T00:39:08.620Z,3.80
2022-12-31T00:41:36.688Z,3.40
2022-12-31T00:44:05.909Z,3.58
2022-12-31T00:49:01.580Z,3.22
2022-12-31T00:51:29.619Z,3.15
2022-12-31T00:53:58.318Z,3.10
2022-12-31T00:56:29.251Z,3.10
2022-12-31T00:58:57.472Z,2.83
2022-12-31T01:01:28.107Z,2.70
2022-12-31T01:03:59.357Z,2.88
2022-12-31T01:08:55.766Z,2.63
2022-12-31T01:11:24.601Z,2.72
2022-12-31T01:13:54.101Z,2.67
2022-12-31T01:16:23.532Z,2.33
2022-12-31T01:18:52.863Z,2.67
2022-12-31T01:21:20.986Z,2.72
2022-12-31T01:23:49.196Z,2.63
2022-12-31T01:26:19.252Z,2.60
2022-12-31T01:28:47.409Z,2.50
2022-12-31T01:31:17.748Z,2.80
2022-12-31T01:33:45.615Z,2.75
2022-12-31T01:36:23.385Z,2.70
2022-12-31T01:38:53.582Z,2.28
2022-12-31T01:41:23.553Z,2.47
2022-12-31T01:43:54.276Z,2.60
2022-12-31T01:46:28.193Z,2.40
2022-12-31T01:49:02.074Z,2.40
2022-12-31T01:51:34.346Z,2.60
2022-12-31T01:54:04.400Z,2.50
2022-12-31T01:56:32.337Z,2.53
2022-12-31T01:59:00.915Z,2.40
2022-12-31T02:01:31.580Z,2.50
2022-12-31T02:04:02.951Z,2.55
2022-12-31T02:06:37.493Z,2.90
2022-12-31T02:09:05.543Z,2.92
2022-12-31T02:11:36.640Z,2.75
2022-12-31T02:16:40.728Z,3.00
2022-12-31T02:19:29.605Z,2.45
2022-12-31T02:22:08.496Z,2.50
2022-12-31T02:25:02.296Z,2.60
2022-12-31T02:27:44.689Z,3.15
2022-12-31T02:30:16.549Z,2.60
2022-12-31T02:32:55.664Z,2.75
2022-12-31T02:35:29.637Z,3.03
2022-12-31T02:38:02.004Z,3.00
2022-12-31T02:40:30.318Z,2.97
2022-12-31T02:42:58.103Z,2.70
2022-12-31T02:45:32.845Z,2.47
2022-12-31T02:48:14.968Z,1.90
2022-12-31T02:50:56.264Z,1.85
2022-12-31T02:53:40.381Z,1.90
2022-12-31T02:56:14.747Z,1.75
2022-12-31T02:59:09.743Z,1.58
2022-12-31T03:04:34.170Z,1.40
2022-12-31T03:07:04.258Z,1.60
2022-12-31T03:09:32.565Z,1.20
2022-12-31T03:12:19.033Z,1.40
2022-12-31T03:14:46.850Z,1.40
2022-12-31T03:17:16.401Z,1.50
2022-12-31T03:20:01.678Z,1.90
2022-12-31T03:22:29.653Z,1.50
2022-12-31T03:25:17.722Z,1.83
2022-12-31T03:27:46.072Z,2.30
2022-12-31T03:30:15.896Z,1.75
2022-12-31T03:32:46.213Z,1.77
2022-12-31T03:35:16.140Z,1.73
2022-12-31T03:37:44.448Z,1.50
2022-12-31T03:40:14.522Z,1.60
2022-12-31T03:42:42.771Z,1.67
2022-12-31T03:45:11.991Z,2.00
2022-12-31T03:47:40.199Z,1.50
2022-12-31T03:50:11.788Z,1.73
2022-12-31T03:52:39.619Z,1.40
2022-12-31T03:55:09.071Z,1.40
2022-12-31T03:57:37.112Z,1.58
2022-12-31T04:00:06.320Z,1.55
2022-12-31T04:02:35.125Z,1.10
2022-12-31T04:05:03.137Z,1.50
2022-12-31T04:07:32.357Z,1.30
2022-12-31T04:10:00.419Z,1.40
2022-12-31T04:12:28.253Z,1.33
2022-12-31T04:14:56.061Z,1.75
2022-12-31T04:17:24.010Z,2.10
2022-12-31T04:19:51.819Z,2.17
2022-12-31T04:22:20.030Z,2.10
2022-12-31T04:24:49.435Z,2.33
2022-12-31T04:27:17.316Z,2.10
2022-12-31T04:29:45.237Z,2.20
2022-12-31T04:32:13.072Z,2.08
2022-12-31T04:34:40.921Z,2.30
2022-12-31T04:37:08.688Z,1.85
2022-12-31T04:39:36.506Z,1.83
2022-12-31T04:42:05.798Z,2.08
2022-12-31T04:44:35.081Z,2.30
2022-12-31T04:47:03.024Z,2.13
2022-12-31T04:49:30.782Z,2.40
2022-12-31T04:51:58.571Z,2.65
2022-12-31T04:54:26.386Z,2.50
2022-12-31T04:56:54.205Z,2.78
2022-12-31T04:59:23.408Z,2.80
2022-12-31T05:01:51.306Z,3.00
2022-12-31T05:04:19.138Z,3.03
2022-12-31T05:06:47.061Z,3.40
2022-12-31T05:09:14.813Z,3.70
2022-12-31T05:11:42.577Z,3.40
2022-12-31T05:14:10.425Z,3.50
2022-12-31T05:16:39.563Z,3.28
2022-12-31T05:19:09.540Z,3.05
2022-12-31T05:21:37.484Z,3.42
2022-12-31T05:24:05.771Z,2.92
2022-12-31T05:26:33.765Z,3.20
2022-12-31T05:29:01.646Z,3.15
2022-12-31T05:31:29.505Z,2.50
2022-12-31T05:33:58.784Z,3.03
2022-12-31T05:36:26.601Z,2.35
2022-12-31T05:38:54.393Z,2.10
2022-12-31T05:41:22.174Z,2.22
2022-12-31T05:43:51.315Z,2.35
2022-12-31T05:46:19.128Z,2.20
2022-12-31T05:48:46.954Z,2.13
2022-12-31T05:51:16.061Z,2.20
2022-12-31T05:53:43.881Z,2.38
2022-12-31T05:56:11.690Z,2.10
2022-12-31T05:58:39.483Z,2.30
2022-12-31T06:01:07.285Z,2.15
2022-12-31T06:03:35.140Z,2.10
2022-12-31T06:06:02.985Z,2.20
2022-12-31T06:08:32.186Z,2.25
2022-12-31T06:11:00.079Z,1.90
2022-12-31T06:13:27.891Z,2.00
2022-12-31T06:15:55.718Z,1.70
2022-12-31T06:18:23.587Z,2.10
2022-12-31T06:20:51.384Z,1.95
2022-12-31T06:23:19.218Z,1.90
2022-12-31T06:25:48.550Z,1.85
2022-12-31T06:28:20.429Z,1.80
2022-12-31T06:30:48.836Z,2.03
2022-12-31T06:33:16.646Z,1.98
2022-12-31T06:35:44.406Z,2.22
2022-12-31T06:38:12.161Z,2.45
2022-12-31T06:40:39.921Z,2.67
2022-12-31T06:43:09.030Z,2.50
2022-12-31T06:45:36.861Z,2.90
2022-12-31T06:48:05.039Z,2.88
2022-12-31T06:50:32.917Z,3.22
2022-12-31T06:53:00.704Z,3.38
2022-12-31T06:55:29.115Z,3.45
2022-12-31T06:57:57.767Z,3.33
2022-12-31T07:00:27.579Z,3.60
2022-12-31T07:03:11.261Z,3.70
2022-12-31T07:05:45.591Z,3.92
2022-12-31T07:08:30.321Z,3.10
2022-12-31T07:11:05.087Z,2.80
2022-12-31T07:14:00.948Z,2.50
2022-12-31T07:16:42.209Z,2.67
2022-12-31T07:19:26.090Z,2.47
2022-12-31T07:21:56.679Z,2.40
2022-12-31T07:24:25.061Z,2.10
2022-12-31T07:27:05.177Z,1.60
2022-12-31T07:29:47.743Z,1.60
2022-12-31T07:32:29.413Z,1.30
2022-12-31T07:35:05.505Z,0.85
2022-12-31T07:37:40.947Z,1.00
2022-12-31T07:40:18.126Z,0.85
2022-12-31T07:43:03.309Z,0.85
2022-12-31T07:45:42.003Z,0.60
2022-12-31T07:48:23.095Z,0.90
2022-12-31T07:50:51.891Z,0.80
2022-12-31T07:53:20.112Z,1.10
2022-12-31T07:55:49.032Z,1.20
2022-12-31T07:58:23.295Z,0.93
2022-12-31T08:00:53.691Z,1.00
2022-12-31T08:03:41.937Z,1.00
2022-12-31T08:06:13.494Z,1.27
2022-12-31T08:08:51.914Z,1.10
2022-12-31T08:11:28.706Z,1.38
2022-12-31T08:13:57.578Z,1.20
2022-12-31T08:16:25.939Z,1.50
2022-12-31T08:18:55.791Z,1.40
2022-12-31T08:21:35.269Z,1.75
2022-12-31T08:24:13.819Z,1.70
2022-12-31T08:26:53.389Z,1.40
2022-12-31T08:29:35.330Z,1.60
2022-12-31T08:32:11.623Z,1.30
2022-12-31T08:34:50.255Z,1.30
2022-12-31T08:37:25.571Z,1.50
2022-12-31T08:40:09.401Z,1.20
2022-12-31T08:42:44.937Z,1.45
2022-12-31T08:45:20.253Z,1.50
2022-12-31T08:47:59.545Z,2.38
2022-12-31T08:50:30.449Z,1.30
2022-12-31T08:52:58.969Z,1.20
2022-12-31T08:55:27.294Z,1.30
2022-12-31T08:58:11.223Z,1.40
2022-12-31T09:00:40.014Z,1.20
2022-12-31T09:03:43.008Z,1.65
2022-12-31T09:06:20.888Z,1.50
2022-12-31T09:08:54.670Z,1.40
2022-12-31T09:11:29.828Z,1.27
2022-12-31T09:14:08.460Z,1.27
2022-12-31T09:16:49.565Z,1.10
2022-12-31T09:19:17.371Z,1.23
2022-12-31T09:21:47.248Z,1.30
2022-12-31T09:24:16.742Z,1.40
2022-12-31T09:26:55.520Z,1.50
2022-12-31T09:29:38.848Z,1.35
2022-12-31T09:32:16.284Z,1.95
2022-12-31T09:34:55.042Z,2.03
2022-12-31T09:37:37.064Z,2.17
2022-12-31T09:40:33.567Z,2.40
2022-12-31T09:43:24.519Z,2.83
2022-12-31T09:46:15.539Z,2.00
2022-12-31T09:49:22.757Z,2.40
2022-12-31T09:51:57.663Z,2.10
2022-12-31T09:54:41.117Z,2.50
2022-12-31T09:57:35.246Z,2.72
2022-12-31T10:00:06.695Z,2.40
2022-12-31T10:02:58.499Z,2.25
2022-12-31T10:05:57.618Z,2.17
2022-12-31T10:08:47.848Z,1.95
2022-12-31T10:11:25.889Z,1.98
2022-12-31T10:14:07.026Z,1.90
2022-12-31T10:17:05.998Z,1.60
2022-12-31T10:20:05.619Z,2.20
2022-12-31T10:22:51.281Z,1.55
2022-12-31T10:25:39.529Z,1.67
2022-12-31T10:28:19.293Z,1.92
2022-12-31T10:31:00.373Z,2.10
2022-12-31T10:33:42.551Z,1.75
2022-12-31T10:36:19.200Z,1.73
2022-12-31T10:38:57.445Z,1.92
2022-12-31T10:41:58.652Z,2.13
2022-12-31T10:44:57.865Z,1.80
2022-12-31T10:48:17.650Z,1.90
2022-12-31T10:51:19.201Z,1.70
2022-12-31T10:54:06.936Z,2.05
2022-12-31T10:57:15.213Z,2.00
2022-12-31T11:00:03.276Z,2.10
2022-12-31T11:03:08.272Z,2.13
2022-12-31T11:06:21.682Z,1.90
2022-12-31T11:09:06.979Z,2.35
2022-12-31T11:11:45.193Z,2.20
2022-12-31T11:14:58.193Z,2.00
2022-12-31T11:17:47.629Z,1.83
2022-12-31T11:20:30.745Z,2.10
2022-12-31T11:23:09.382Z,2.10
2022-12-31T11:25:50.873Z,2.60
2022-12-31T11:28:31.517Z,2.33
2022-12-31T11:31:13.802Z,3.13
2022-12-31T11:33:57.416Z,2.67
2022-12-31T11:36:37.514Z,2.13
2022-12-31T11:39:31.091Z,2.28
2022-12-31T11:42:11.563Z,2.75
2022-12-31T11:44:47.651Z,2.67
2022-12-31T11:47:49.662Z,3.10
2022-12-31T11:50:38.432Z,2.78
2022-12-31T11:53:23.942Z,2.70
2022-12-31T11:56:10.524Z,2.58
2022-12-31T11:58:38.508Z,2.60
2022-12-31T12:01:12.674Z,2.65
2022-12-31T12:03:43.761Z,2.40
2022-12-31T12:11:14.835Z,1.90
2022-12-31T12:13:42.667Z,2.53
2022-12-31T12:16:10.560Z,2.90
2022-12-31T12:18:46.024Z,3.00
2022-12-31T12:21:15.628Z,2.67
2022-12-31T12:23:54.546Z,2.97
2022-12-31T12:26:31.553Z,2.80
2022-12-31T12:31:28.381Z,2.08
2022-12-31T12:33:57.574Z,2.40
2022-12-31T12:36:25.374Z,2.00
2022-12-31T12:39:02.431Z,2.40
2022-12-31T12:44:05.930Z,2.10
2022-12-31T12:46:36.507Z,1.80
2022-12-31T12:49:06.683Z,2.40
2022-12-31T12:51:46.554Z,2.17
2022-12-31T12:54:29.603Z,2.08
2022-12-31T12:57:05.726Z,2.33
2022-12-31T13:00:03.060Z,2.00
2022-12-31T13:02:58.026Z,2.22
2022-12-31T13:08:14.189Z,2.03
2022-12-31T13:10:58.307Z,2.28
2022-12-31T13:13:38.097Z,2.28
2022-12-31T13:16:11.557Z,2.30
2022-12-31T13:18:51.297Z,2.28
2022-12-31T13:21:37.274Z,2.10
2022-12-31T13:24:12.619Z,2.38
2022-12-31T13:26:46.050Z,2.33
2022-12-31T13:29:18.816Z,2.28
2022-12-31T13:31:48.369Z,2.33
2022-12-31T13:34:19.594Z,2.45
2022-12-31T13:36:51.609Z,2.08
2022-12-31T13:39:24.694Z,2.13
2022-12-31T13:41:58.838Z,2.08
2022-12-31T13:44:31.999Z,2.33
2022-12-31T13:47:05.355Z,2.47
2022-12-31T13:49:38.839Z,2.40
2022-12-31T13:52:22.761Z,2.30
2022-12-31T13:54:57.374Z,2.30
2022-12-31T13:57:38.753Z,2.55
2022-12-31T14:00:14.476Z,2.65
2022-12-31T14:02:49.088Z,2.30
2022-12-31T14:05:24.379Z,2.13
2022-12-31T14:07:55.657Z,2.53
2022-12-31T14:10:33.598Z,2.30
2022-12-31T14:13:13.153Z,2.40
2022-12-31T14:15:50.428Z,2.28
2022-12-31T14:18:25.129Z,2.97
2022-12-31T14:21:00.208Z,2.88
2022-12-31T14:23:42.314Z,2.60
2022-12-31T14:26:20.799Z,2.30
2022-12-31T14:28:54.590Z,2.30
2022-12-31T14:31:35.031Z,2.47
2022-12-31T14:34:10.568Z,3.22
2022-12-31T14:36:51.690Z,2.85
2022-12-31T14:39:34.244Z,2.53
2022-12-31T14:42:17.936Z,2.70
2022-12-31T14:45:00.729Z,2.92
2022-12-31T14:47:37.849Z,3.20
2022-12-31T14:50:10.853Z,2.65
2022-12-31T14:52:50.761Z,2.92
2022-12-31T14:55:29.142Z,2.60
2022-12-31T15:00:54.058Z,2.38
2022-12-31T15:03:27.403Z,4.07
2022-12-31T15:06:01.588Z,4.70
2022-12-31T15:08:50.112Z,3.60
2022-12-31T15:11:33.144Z,3.15
2022-12-31T15:16:54.249Z,3.80
2022-12-31T15:19:47.445Z,3.78
2022-12-31T15:22:30.183Z,3.30
2022-12-31T15:25:00.141Z,3.35
2022-12-31T15:27:36.209Z,3.30
2022-12-31T15:30:05.406Z,2.97
2022-12-31T15:32:36.899Z,2.90
2022-12-31T15:35:25.148Z,3.50
2022-12-31T15:38:00.313Z,3.72
2022-12-31T15:40:29.086Z,5.05
2022-12-31T15:43:03.707Z,5.13
2022-12-31T15:45:37.408Z,4.20
2022-12-31T15:48:14.662Z,4.35
2022-12-31T15:50:44.206Z,4.93
2022-12-31T15:53:27.556Z,4.60
2022-12-31T15:55:57.579Z,4.50
2022-12-31T15:58:29.235Z,4.13
2022-12-31T16:01:04.765Z,4.40
2022-12-31T16:03:34.445Z,4.45
2022-12-31T16:06:04.504Z,4.10
2022-12-31T16:08:34.851Z,3.53
2022-12-31T16:11:05.308Z,4.55
2022-12-31T16:13:37.647Z,3.70
2022-12-31T16:16:08.763Z,5.05
2022-12-31T16:18:41.150Z,4.35
2022-12-31T16:21:24.895Z,5.85
2022-12-31T16:23:53.909Z,5.70
2022-12-31T16:26:24.020Z,5.50
2022-12-31T16:28:53.206Z,4.25
2022-12-31T16:31:21.873Z,3.78
2022-12-31T16:33:49.839Z,4.10
2022-12-31T16:36:22.561Z,4.38
2022-12-31T16:38:51.044Z,4.15
2022-12-31T16:41:20.948Z,4.05
2022-12-31T16:43:49.794Z,3.80
2022-12-31T16:46:22.967Z,4.07
2022-12-31T16:48:55.155Z,3.97
2022-12-31T16:51:26.743Z,3.85
2022-12-31T16:53:54.645Z,4.00
2022-12-31T16:56:27.242Z,3.50
2022-12-31T16:59:01.260Z,3.97
2022-12-31T17:01:33.851Z,4.00
2022-12-31T17:04:05.188Z,3.70
2022-12-31T17:06:33.759Z,3.60
2022-12-31T17:09:20.487Z,3.97
2022-12-31T17:11:53.103Z,3.30
2022-12-31T17:14:24.035Z,4.35
2022-12-31T17:17:03.358Z,4.85
2022-12-31T17:19:40.083Z,4.85
2022-12-31T17:22:11.556Z,4.75
2022-12-31T17:24:40.151Z,4.00
2022-12-31T17:27:10.336Z,4.80
2022-12-31T17:29:38.304Z,5.25
2022-12-31T17:32:26.549Z,4.88
2022-12-31T17:34:54.648Z,4.80
2022-12-31T17:37:26.965Z,5.60
2022-12-31T17:40:10.861Z,4.82
2022-12-31T17:42:47.411Z,5.30
2022-12-31T17:45:20.911Z,4.93
2022-12-31T17:47:53.916Z,5.03
2022-12-31T17:50:23.333Z,5.00
2022-12-31T17:52:51.390Z,4.10
2022-12-31T17:55:20.350Z,4.10
2022-12-31T17:57:52.263Z,4.18
2022-12-31T18:00:22.157Z,4.60
2022-12-31T18:02:51.318Z,4.22
2022-12-31T18:05:21.530Z,4.13
2022-12-31T18:07:50.179Z,4.57
2022-12-31T18:10:21.068Z,5.00
2022-12-31T18:12:49.912Z,4.97
2022-12-31T18:15:20.106Z,5.68
2022-12-31T18:17:48.557Z,5.03
2022-12-31T18:20:18.627Z,4.40
2022-12-31T18:22:46.861Z,4.10
2022-12-31T18:25:17.843Z,5.03
2022-12-31T18:27:45.688Z,3.78
2022-12-31T18:30:16.396Z,4.40
2022-12-31T18:32:46.106Z,4.40
2022-12-31T18:35:48.606Z,4.45
2022-12-31T18:38:08.135Z,3.70
2022-12-31T18:40:35.987Z,15.50
2022-12-31T18:43:05.311Z,4.35
2022-12-31T18:45:33.296Z,6.22
2022-12-31T18:48:01.141Z,3.70
2022-12-31T18:50:29.034Z,6.88
2022-12-31T18:52:56.881Z,3.83
2022-12-31T18:55:33.120Z,4.18
2022-12-31T18:58:00.929Z,4.30
2022-12-31T19:00:28.766Z,3.45
2022-12-31T19:02:56.634Z,3.47
2022-12-31T19:05:27.048Z,3.20
2022-12-31T19:07:55.391Z,4.28
2022-12-31T19:10:23.986Z,3.70
2022-12-31T19:12:53.782Z,3.50
2022-12-31T19:15:29.564Z,3.65
2022-12-31T19:17:57.732Z,3.50
2022-12-31T19:20:25.821Z,3.17
2022-12-31T19:22:53.643Z,3.10
2022-12-31T19:25:23.426Z,3.53
2022-12-31T19:27:53.130Z,3.42
2022-12-31T19:30:24.562Z,3.13
2022-12-31T19:32:52.709Z,3.50
2022-12-31T19:35:21.337Z,3.35
2022-12-31T19:37:51.029Z,4.05
2022-12-31T19:40:22.096Z,4.10
2022-12-31T19:45:21.443Z,3.90
2022-12-31T19:47:49.644Z,3.45
2022-12-31T19:50:19.528Z,3.85
2022-12-31T19:52:48.878Z,5.75
2022-12-31T19:55:19.645Z,4.15
2022-12-31T19:57:48.257Z,4.78
2022-12-31T20:00:18.213Z,3.80
2022-12-31T20:02:49.182Z,3.78
2022-12-31T20:05:19.433Z,3.75
2022-12-31T20:07:47.292Z,4.32
2022-12-31T20:10:15.160Z,4.13
2022-12-31T20:12:44.764Z,3.35
2022-12-31T20:15:12.829Z,3.88
2022-12-31T20:17:40.631Z,4.43
2022-12-31T20:20:10.587Z,4.25
2022-12-31T20:22:38.508Z,4.00
2022-12-31T20:25:06.878Z,4.70
2022-12-31T20:27:34.938Z,4.68
2022-12-31T20:30:02.894Z,4.20
2022-12-31T20:32:31.271Z,4.82
2022-12-31T20:34:59.156Z,3.60
2022-12-31T20:37:28.338Z,3.90
2022-12-31T20:39:56.205Z,3.50
2022-12-31T20:42:23.974Z,4.10
2022-12-31T20:44:51.735Z,3.90
2022-12-31T20:47:19.551Z,4.18
2022-12-31T20:50:12.948Z,4.00
2022-12-31T20:52:36.552Z,3.88
2022-12-31T20:55:05.114Z,4.50
2022-12-31T20:57:34.036Z,3.80
2022-12-31T21:00:02.046Z,4.05
2022-12-31T21:02:41.295Z,4.88
2022-12-31T21:05:10.880Z,3.85
2022-12-31T21:07:40.165Z,4.40
2022-12-31T21:10:08.844Z,4.78
2022-12-31T21:12:44.753Z,4.70
2022-12-31T21:15:13.459Z,4.40
2022-12-31T21:17:41.403Z,4.38
2022-12-31T21:20:10.249Z,3.80
2022-12-31T21:22:38.112Z,4.55
2022-12-31T21:25:08.054Z,4.05
2022-12-31T21:27:36.797Z,3.78
2022-12-31T21:30:20.604Z,3.85
2022-12-31T21:32:48.683Z,3.72
2022-12-31T21:35:42.635Z,5.45
2022-12-31T21:38:06.626Z,4.63
2022-12-31T21:40:36.014Z,6.32
2022-12-31T21:43:03.808Z,5.22
2022-12-31T21:45:31.615Z,4.57
2022-12-31T21:48:17.459Z,4.40
2022-12-31T21:50:46.025Z,5.70
2022-12-31T21:53:16.548Z,6.07
2022-12-31T21:56:06.265Z,10.23
2022-12-31T21:58:34.441Z,8.43
2022-12-31T22:01:20.033Z,4.50
2022-12-31T22:03:47.993Z,5.13
2022-12-31T22:06:20.544Z,6.35
2022-12-31T22:08:50.639Z,4.47
2022-12-31T22:11:21.590Z,3.85
2022-12-31T22:13:50.135Z,4.22
2022-12-31T22:16:20.281Z,4.53
2022-12-31T22:18:48.908Z,4.03
2022-12-31T22:21:19.962Z,4.20
2022-12-31T22:23:50.089Z,4.00
2022-12-31T22:26:21.164Z,3.83
2022-12-31T22:31:18.937Z,3.90
2022-12-31T22:33:47.075Z,3.90
2022-12-31T22:36:17.503Z,4.00
2022-12-31T22:38:46.142Z,4.32
2022-12-31T22:41:16.967Z,3.67
2022-12-31T22:43:48.581Z,4.07
2022-12-31T22:46:18.564Z,4.03
2022-12-31T22:48:46.893Z,3.72
2022-12-31T22:51:15.949Z,3.60
2022-12-31T22:53:44.191Z,4.10
2022-12-31T22:56:13.768Z,3.85
2022-12-31T22:58:41.824Z,3.65
2022-12-31T23:01:18.282Z,3.35
2022-12-31T23:03:46.820Z,3.95
2022-12-31T23:06:14.917Z,6.30
2022-12-31T23:09:03.045Z,14.32
2022-12-31T23:11:30.272Z,41.83
2022-12-31T23:14:15.652Z,17.88
2022-12-31T23:17:29.191Z,28.55
2022-12-31T23:20:07.873Z,8.05
2022-12-31T23:22:53.159Z,15.77
2022-12-31T23:25:21.018Z,6.90
2022-12-31T23:27:48.857Z,14.73
2022-12-31T23:30:16.730Z,7.38
2022-12-31T23:32:45.913Z,15.95
2022-12-31T23:35:13.959Z,14.00
2022-12-31T23:37:41.752Z,13.45
2022-12-31T23:40:15.745Z,14.80
2022-12-31T23:42:46.802Z,22.80
2022-12-31T23:45:14.615Z,15.57
2022-12-31T23:47:42.710Z,20.45
2022-12-31T23:50:11.866Z,12.82
2022-12-31T23:52:39.683Z,19.08
2022-12-31T23:55:07.889Z,14.45
2022-12-31T23:57:35.667Z,14.82
